Abbotsford International Airport

CYXX · Colombie-Britannique, Canada

METAR anciennes CYXX · Abbotsford Airport

Tu vois ci-dessous les METAR des derniers jours. Sélectionne une année pour parcourir les METAR plus anciens, à partir de l'année 2007.

4 décembre 2022

Temps Code Temps Temp. Vue Base cloud Vent METAR/SPECI
20:00
V
-4 °C 15 mi - 030° 030° 4 kt METAR CYXX 050400Z 03004KT 330V060 15SM SKC M04/M08 A3001 RMK SLP166
19:00
V
-3 °C 15 mi - 010° 010° 4 kt METAR CYXX 050300Z 01004KT 15SM FEW160 M03/M09 A3000 RMK AC1 AC TR SLP164
18:00
V
-5 °C 15 mi - 340° 340° 5 kt METAR CYXX 050200Z 34005KT 15SM FEW160 M05/M09 A2999 RMK AC1 AC TR SLP162
17:00
V
-5 °C 15 mi - 050° 050° 3 kt METAR CYXX 050100Z 05003KT 360V120 15SM FEW160 M05/M10 A2999 RMK AC1 AC TR SLP161
16:00
V
1 °C 30 mi - 070° 070° 3 kt METAR CYXX 050000Z 07003KT 060V140 30SM FEW180 01/M09 A2998 RMK AC1 AC TR SLP156
15:00
V
2 °C 30 mi - Var 000° 0 kt METAR CYXX 042300Z 00000KT 30SM FEW180 02/M09 A2996 RMK AC1 AC TR SLP151
14:00
V
1 °C 30 mi - 010° 010° 7 kt METAR CYXX 042200Z 01007KT 30SM FEW180 01/M07 A2996 RMK AC1 SLP149
13:00
V
2 °C 30 mi - 060° 060° 3 kt METAR CYXX 042100Z 06003KT 360V120 30SM FEW180 02/M08 A2996 RMK AC1 AC TR SLP150
12:00
V
2 °C 30 mi - 040° 040° 7 kt METAR CYXX 042000Z 04007KT 30SM FEW150 FEW160 02/M08 A2997 RMK AC1AC1 AC TR SLP154
11:00
V
0 °C 30 mi - 020° 020° 11 kt METAR CYXX 041900Z 02011KT 30SM FEW150 00/M08 A2999 RMK AC1 SLP160
10:00
V
-1 °C 30 mi - 360° 360° 2 kt METAR CYXX 041800Z 36002KT 30SM FEW150 M01/M08 A3001 RMK AC1 SLP166
09:00
V
-3 °C 30 mi - 020° 020° 6 kt METAR CYXX 041700Z 02006KT 30SM FEW150 M03/M09 A3001 RMK AC1 AC TR SLP167
08:00
V
-4 °C 30 mi - 020° 020° 8 kt METAR CYXX 041600Z 02008KT 30SM FEW150 FEW220 M04/M09 A3001 RMK AC1CI1 CI TR SLP168
07:00
V
-3 °C 30 mi - 030° 030° 7 kt METAR CYXX 041500Z 03007KT 30SM FEW220 M03/M09 A3001 RMK CI1 CI TR SLP169
06:00
V
-2 °C 15 mi - 050° 050° 6 kt METAR CYXX 041400Z 05006KT 15SM SKC M02/M08 A3002 RMK SLP171
05:00
V
-1 °C 15 mi - 050° 050° 8 kt METAR CYXX 041300Z 05008KT 15SM SKC M01/M09 A3004 RMK SLP179
04:00
V
-2 °C 15 mi - 010° 010° 3 kt METAR CYXX 041200Z 01003KT 010V070 15SM SKC M02/M09 A3007 RMK SLP189
03:00
V
-5 °C 15 mi - 020° 020° 6 kt METAR CYXX 041100Z 02006KT 15SM SKC M05/M10 A3010 RMK SLP199
02:00
V
-2 °C 15 mi - 030° 030° 4 kt METAR CYXX 041000Z 03004KT 15SM SKC M02/M10 A3012 RMK SLP206
01:00
V
0 °C 15 mi - 060° 060° 10 kt METAR CYXX 040900Z 06010KT 15SM SKC M00/M09 A3014 RMK SLP211
00:00
V
-1 °C 15 mi - 050° 050° 7 kt METAR CYXX 040800Z 05007KT 15SM SKC M01/M08 A3016 RMK SLP217

3 décembre 2022

Temps Code Temps Temp. Vue Base cloud Vent METAR/SPECI
23:00
V
-4 °C 15 mi - 350° 350° 4 kt METAR CYXX 040700Z 35004KT 330V050 15SM SKC M04/M09 A3016 RMK SLP219
22:00
V
-4 °C 15 mi - 360° 360° 3 kt METAR CYXX 040600Z 36003KT 270V040 15SM SKC M04/M08 A3017 RMK SLP222
21:00
V
-2 °C 15 mi - 060° 060° 5 kt METAR CYXX 040500Z 06005KT 15SM SKC M02/M08 A3018 RMK SLP226
20:00
V
-3 °C 15 mi - 040° 040° 3 kt METAR CYXX 040400Z 04003KT 010V090 15SM SKC M03/M09 A3019 RMK SLP227
19:00
V
-3 °C 15 mi - Var Var 2 kt METAR CYXX 040300Z VRB02KT 15SM SKC M03/M08 A3019 RMK SLP228
18:00
V
-2 °C 15 mi - Var 000° 0 kt METAR CYXX 040200Z 00000KT 15SM SKC M02/M09 A3017 RMK SLP223
17:00
V
-2 °C 15 mi - 030° 030° 2 kt METAR CYXX 040100Z 03002KT 15SM FEW220 M02/M08 A3018 RMK CI2 SLP225
16:00
V
0 °C 30 mi - 080° 080° 8 kt METAR CYXX 040000Z 08008KT 30SM FEW100 SCT220 00/M09 A3017 RMK AC1CI3 AC TR SLP223
15:00
V
1 °C 30 mi 21.000 ft Var 000° 0 kt METAR CYXX 032300Z 00000KT 30SM BKN210 01/M07 A3017 RMK CI5 SLP223
14:00
V
1 °C 30 mi - 070° 070° 9 kt METAR CYXX 032200Z 07009KT 30SM SCT230 01/M09 A3019 RMK CI3 SLP227
13:00
V
0 °C 30 mi - 080° 080° 10 kt METAR CYXX 032100Z 08010KT 30SM FEW050 FEW210 M00/M09 A3019 RMK SC1CI1 CI TR SLP228
12:00
V
0 °C 30 mi - 070° 070° 6 kt METAR CYXX 032000Z 07006KT 30SM FEW065 M00/M09 A3021 RMK SC2 SLP234
11:00
V
-1 °C 30 mi - 080° 080° 7 kt METAR CYXX 031900Z 08007KT 30SM SCT063 M01/M09 A3022 RMK SC4 SLP237
10:00
V
-1 °C 30 mi - 060° 060° 9 kt METAR CYXX 031800Z 06009KT 30SM SCT057 M01/M10 A3020 RMK SC3 SLP231
09:00
V
-2 °C 30 mi 5.700 ft 070° 070° 8 kt METAR CYXX 031700Z 07008KT 30SM BKN057 BKN210 M02/M10 A3018 RMK SC5CI1 SLP224
08:00
V
-3 °C 30 mi 6.000 ft 070° 070° 9 kt METAR CYXX 031600Z 07009KT 30SM BKN060 M03/M10 A3016 RMK SC6 SLP217
07:00
V
-2 °C 20 mi 4.600 ft 070° 070° 5 kt METAR CYXX 031500Z 07005KT 20SM BKN046 M02/M09 A3015 RMK SC7 SLP213
06:00
V
-2 °C 13 mi 4.600 ft 070° 070° 9 kt METAR CYXX 031400Z 07009KT 13SM BKN046 OVC058 M02/M10 A3013 RMK SC5SC3 VIRGA SLP207
05:00
V
-3 °C 13 mi 4.400 ft 070° 070° 9 kt METAR CYXX 031300Z 07009KT 13SM OVC044 M03/M10 A3012 RMK SC8 VIRGA SLP206
04:00
V
-3 °C 13 mi 4.200 ft 070° 070° 10 kt METAR CYXX 031200Z 07010KT 13SM BKN042 BKN053 OVC063 M03/M10 A3010 RMK SC5SC2SC1 VIRGA SLP198
03:00
V
-2 °C 15 mi 4.000 ft 050° 050° 6 kt METAR CYXX 031100Z 05006KT 15SM BKN040 OVC074 M02/M09 A3009 RMK SC5AS3 SLP196
02:00
V
-2 °C 15 mi 7.200 ft 070° 070° 7 kt METAR CYXX 031000Z 07007KT 020V090 15SM SCT060 OVC072 M02/M09 A3008 RMK SC3AS5 SLP191
01:00
V
-2 °C 13 mi 8.500 ft 050° 050° 8 kt METAR CYXX 030900Z 05008KT 13SM SCT064 OVC085 M02/M09 A3008 RMK SC3AS5 SLP190
00:00
V
-2 °C 13 mi 7.000 ft 050° 050° 8 kt METAR CYXX 030800Z 05008KT 13SM FEW065 BKN070 OVC080 M02/M08 A3007 RMK SC1AS6AS1 VIRGA SLP187

2 décembre 2022

Temps Code Temps Temp. Vue Base cloud Vent METAR/SPECI
23:00
V
-3 °C 13 mi 7.500 ft 050° 050° 7 kt METAR CYXX 030700Z 05007KT 13SM SCT067 OVC075 M03/M08 A3007 RMK AS4AS4 VIRGA SLP187
22:00
V
-3 °C 15 mi 7.400 ft 050° 050° 10 kt METAR CYXX 030600Z 05010KT 15SM FEW059 BKN074 OVC085 M03/M08 A3006 RMK SC1AS6AS1 VIRGA SLP185
21:00
V
-3 °C 15 mi 6.000 ft 040° 040° 3 kt METAR CYXX 030500Z 04003KT 15SM FEW056 OVC060 M03/M06 A3005 RMK SC2SC6 VIRGA SLP181
20:00
V
-3 °C 15 mi 5.700 ft 060° 060° 8 kt METAR CYXX 030400Z 06008KT 15SM BKN057 BKN064 OVC150 M03/M08 A3004 RMK SC5SC2AS1 SLP177
19:00
V
-4 °C 10 mi 5.000 ft 070° 070° 8 kt METAR CYXX 030300Z 07008KT 10SM OVC050 M04/M08 A3004 RMK SC8 SLP177
18:00
V
-4 °C 10 mi 5.100 ft 060° 060° 10 kt METAR CYXX 030200Z 06010KT 10SM OVC051 M04/M08 A3005 RMK SC8 SLP180
17:00
V
-4 °C 15 mi 4.800 ft 070° 070° 6 kt METAR CYXX 030100Z 07006KT 15SM OVC048 M04/M08 A3005 RMK SC8 SLP181
16:00
V
-4 °C 20 mi 4.700 ft 070° 070° 8 kt METAR CYXX 030000Z 07008KT 20SM BKN047 OVC060 M04/M09 A3005 RMK SC6SC2 SLP182
15:00
V
-5 °C 10 mi 4.500 ft 080° 080° 9 kt METAR CYXX 022300Z 08009KT 10SM BKN045 OVC080 M05/M10 A3006 RMK SC6AC2 SLP185
14:20
V
-4 °C 10 mi 3.500 ft 070° 070° 8 kt METAR CYXX 022220Z 07008KT 10SM BKN035 OVC054 M04/M10 A3007 RMK SC5SC3 SLP187
14:00
V
-4 °C 10 mi 5.000 ft 060° 060° 7 kt METAR CYXX 022200Z 06007KT 10SM -SN SCT035 BKN050 M04/M09 A3007 RMK SC4SC3 SLP187
13:00
V
-5 °C 6 mi 3.400 ft 040° 040° 6 kt METAR CYXX 022100Z 04006KT 6SM -SN OVC034 M05/M08 A3009 RMK SC8 SLP196
12:00
V
-6 °C 6 mi 3.300 ft 070° 070° 9 kt METAR CYXX 022000Z 07009KT 6SM -SN OVC033 M06/M11 A3009 RMK SC8 SLP197
11:28
V
-6 °C 10 mi 3.600 ft 080° 080° 7 kt METAR CYXX 021928Z 08007KT 10SM -SN OVC036 M06/M11 A3010 RMK SC8 SLP199
11:00
V
-6 °C 20 mi 3.500 ft 060° 060° 7 kt METAR CYXX 021900Z 06007KT 20SM BKN035 OVC042 M06/M11 A3010 RMK SC5SC3 INTMT -SN SLP199
10:31
V
-7 °C 20 mi 3.800 ft 070° 070° 9 kt METAR CYXX 021831Z 07009KT 20SM -SN OVC038 M07/M12 A3010 RMK SC8 SLP200
10:00
V
-7 °C 20 mi 4.000 ft 080° 080° 11 kt METAR CYXX 021800Z 08011KT 20SM BKN040 OVC080 M07/M12 A3010 RMK SC6AC2 SLP198
09:00
V
-6 °C 20 mi 3.800 ft 060° 060° 8 kt METAR CYXX 021700Z 06008KT 20SM BKN038 OVC080 M06/M12 A3009 RMK CU6AC2 SLP196
08:00
V
-6 °C 25 mi 8.000 ft 080° 080° 5 kt METAR CYXX 021600Z 08005KT 25SM SCT038 OVC080 M06/M12 A3008 RMK CU4AC4 SLP193
07:00
V
-7 °C 15 mi 8.300 ft 070° 070° 9 kt METAR CYXX 021500Z 07009KT 15SM FEW045 OVC083 M07/M13 A3007 RMK SC2AS6 SLP188
06:00
V
-7 °C 15 mi 7.600 ft 080° 080° 8 kt METAR CYXX 021400Z 08008KT 15SM FEW062 OVC076 M07/M13 A3006 RMK SC1AS7 SLP186
05:00
V
-7 °C 15 mi 7.700 ft 060° 060° 5 kt METAR CYXX 021300Z 06005KT 15SM FEW063 OVC077 M07/M13 A3006 RMK SC2AS6 SLP184
04:00
V
-8 °C 15 mi 7.700 ft 080° 080° 7 kt METAR CYXX 021200Z 08007KT 15SM SCT067 OVC077 M08/M14 A3006 RMK AC3AC5 SLP184
03:00
V
-8 °C 15 mi 8.300 ft 070° 070° 6 kt METAR CYXX 021100Z 07006KT 15SM FEW047 BKN083 M08/M14 A3005 RMK SC1AC6 SLP180
02:00
V
-8 °C 15 mi 7.000 ft 090° 090° 7 kt METAR CYXX 021000Z 09007KT 15SM SCT049 BKN070 BKN079 M08/M14 A3003 RMK SC3AC2AC2 SLP175

Nous et des tiers suivons ton comportement Internet sur notre site Web à l'aide de cookies. Si tu continues, nous supposons que tu es d'accord avec notre Politique en matière de cookies.